sensor_id;sensor_type;location;lat;lon;timestamp;temperature;humidity
8332;DHT22;4203;48.144;14.118;2023-02-28T00:01:11;-0.90;99.90
8332;DHT22;4203;48.144;14.118;2023-02-28T00:03:38;-0.90;99.90
8332;DHT22;4203;48.144;14.118;2023-02-28T00:06:09;-1.00;99.90
8332;DHT22;4203;48.144;14.118;2023-02-28T00:08:38;-1.00;99.90
8332;DHT22;4203;48.144;14.118;2023-02-28T00:11:06;-1.10;99.90
8332;DHT22;4203;48.144;14.118;2023-02-28T00:13:35;-1.10;99.90
8332;DHT22;4203;48.144;14.118;2023-02-28T00:16:05;-1.10;99.90
8332;DHT22;4203;48.144;14.118;2023-02-28T00:18:32;-1.10;99.90
8332;DHT22;4203;48.144;14.118;2023-02-28T00:21:00;-1.20;99.90
8332;DHT22;4203;48.144;14.118;2023-02-28T00:23:27;-1.20;99.90
8332;DHT22;4203;48.144;14.118;2023-02-28T00:25:55;-1.20;99.90
8332;DHT22;4203;48.144;14.118;2023-02-28T00:28:23;-1.20;99.90
8332;DHT22;4203;48.144;14.118;2023-02-28T00:30:51;-1.20;99.90
8332;DHT22;4203;48.144;14.118;2023-02-28T00:33:18;-1.20;99.90
8332;DHT22;4203;48.144;14.118;2023-02-28T00:35:45;-1.20;99.90
8332;DHT22;4203;48.144;14.118;2023-02-28T00:38:14;-1.20;99.90
8332;DHT22;4203;48.144;14.118;2023-02-28T00:40:41;-1.20;99.90
8332;DHT22;4203;48.144;14.118;2023-02-28T00:43:10;-1.30;99.90
8332;DHT22;4203;48.144;14.118;2023-02-28T00:45:37;-1.30;99.90
8332;DHT22;4203;48.144;14.118;2023-02-28T00:48:04;-1.30;99.90
8332;DHT22;4203;48.144;14.118;2023-02-28T00:50:32;-1.30;99.90
8332;DHT22;4203;48.144;14.118;2023-02-28T00:52:59;-1.30;99.90
8332;DHT22;4203;48.144;14.118;2023-02-28T00:55:26;-1.30;99.90
8332;DHT22;4203;48.144;14.118;2023-02-28T00:57:53;-1.40;99.90
8332;DHT22;4203;48.144;14.118;2023-02-28T01:00:22;-1.30;99.90
8332;DHT22;4203;48.144;14.118;2023-02-28T01:02:49;-1.40;99.90
8332;DHT22;4203;48.144;14.118;2023-02-28T01:05:16;-1.40;99.90
8332;DHT22;4203;48.144;14.118;2023-02-28T01:07:43;-1.40;99.90
8332;DHT22;4203;48.144;14.118;2023-02-28T01:10:11;-1.50;99.90
8332;DHT22;4203;48.144;14.118;2023-02-28T01:12:38;-1.50;99.90
8332;DHT22;4203;48.144;14.118;2023-02-28T01:15:06;-1.50;99.90
8332;DHT22;4203;48.144;14.118;2023-02-28T01:17:36;-1.50;99.90
8332;DHT22;4203;48.144;14.118;2023-02-28T01:20:03;-1.60;99.90
8332;DHT22;4203;48.144;14.118;2023-02-28T01:22:31;-1.60;99.90
8332;DHT22;4203;48.144;14.118;2023-02-28T01:24:58;-1.60;99.90
8332;DHT22;4203;48.144;14.118;2023-02-28T01:27:25;-1.60;99.90
8332;DHT22;4203;48.144;14.118;2023-02-28T01:29:52;-1.60;99.90
8332;DHT22;4203;48.144;14.118;2023-02-28T01:32:19;-1.60;99.90
8332;DHT22;4203;48.144;14.118;2023-02-28T01:34:48;-1.70;99.90
8332;DHT22;4203;48.144;14.118;2023-02-28T01:37:15;-1.70;99.90
8332;DHT22;4203;48.144;14.118;2023-02-28T01:39:42;-1.70;99.90
8332;DHT22;4203;48.144;14.118;2023-02-28T01:42:12;-1.70;99.90
8332;DHT22;4203;48.144;14.118;2023-02-28T01:44:58;-1.80;99.90
8332;DHT22;4203;48.144;14.118;2023-02-28T01:47:28;-1.70;99.90
8332;DHT22;4203;48.144;14.118;2023-02-28T01:49:58;-1.70;99.90
8332;DHT22;4203;48.144;14.118;2023-02-28T01:52:27;-1.80;99.90
8332;DHT22;4203;48.144;14.118;2023-02-28T01:54:57;-1.80;99.90
8332;DHT22;4203;48.144;14.118;2023-02-28T01:57:28;-1.80;99.90
8332;DHT22;4203;48.144;14.118;2023-02-28T02:00:01;-1.80;99.90
8332;DHT22;4203;48.144;14.118;2023-02-28T02:02:33;-1.80;99.90
8332;DHT22;4203;48.144;14.118;2023-02-28T02:05:05;-1.80;99.90
8332;DHT22;4203;48.144;14.118;2023-02-28T02:07:35;-1.80;99.90
8332;DHT22;4203;48.144;14.118;2023-02-28T02:10:06;-1.80;99.90
8332;DHT22;4203;48.144;14.118;2023-02-28T02:12:52;-1.80;99.90
8332;DHT22;4203;48.144;14.118;2023-02-28T02:15:25;-1.80;99.90
8332;DHT22;4203;48.144;14.118;2023-02-28T02:17:57;-1.80;99.90
8332;DHT22;4203;48.144;14.118;2023-02-28T02:23:56;-1.80;99.90
8332;DHT22;4203;48.144;14.118;2023-02-28T02:26:49;-1.80;99.90
8332;DHT22;4203;48.144;14.118;2023-02-28T02:29:47;-1.80;99.90
8332;DHT22;4203;48.144;14.118;2023-02-28T02:32:36;-1.90;99.90
8332;DHT22;4203;48.144;14.118;2023-02-28T02:35:15;-1.80;99.90
8332;DHT22;4203;48.144;14.118;2023-02-28T02:37:50;-1.90;99.90
8332;DHT22;4203;48.144;14.118;2023-02-28T02:40:21;-1.90;99.90
8332;DHT22;4203;48.144;14.118;2023-02-28T02:42:51;-1.90;99.90
8332;DHT22;4203;48.144;14.118;2023-02-28T02:45:25;-1.90;99.90
8332;DHT22;4203;48.144;14.118;2023-02-28T02:47:56;-1.90;99.90
8332;DHT22;4203;48.144;14.118;2023-02-28T02:50:29;-1.90;99.90
8332;DHT22;4203;48.144;14.118;2023-02-28T02:53:00;-1.90;99.90
8332;DHT22;4203;48.144;14.118;2023-02-28T02:55:28;-1.90;99.90
8332;DHT22;4203;48.144;14.118;2023-02-28T02:57:59;-2.00;99.90
8332;DHT22;4203;48.144;14.118;2023-02-28T03:00:33;-2.00;99.90
8332;DHT22;4203;48.144;14.118;2023-02-28T03:03:03;-1.90;99.90
8332;DHT22;4203;48.144;14.118;2023-02-28T03:05:39;-1.90;99.90
8332;DHT22;4203;48.144;14.118;2023-02-28T03:08:08;-1.90;99.90
8332;DHT22;4203;48.144;14.118;2023-02-28T03:10:37;-1.90;99.90
8332;DHT22;4203;48.144;14.118;2023-02-28T03:13:15;-1.90;99.90
8332;DHT22;4203;48.144;14.118;2023-02-28T03:15:55;-1.90;99.90
8332;DHT22;4203;48.144;14.118;2023-02-28T03:18:31;-2.00;99.90
8332;DHT22;4203;48.144;14.118;2023-02-28T03:21:08;-2.00;99.90
8332;DHT22;4203;48.144;14.118;2023-02-28T03:23:45;-2.00;99.90
8332;DHT22;4203;48.144;14.118;2023-02-28T03:26:18;-2.00;99.90
8332;DHT22;4203;48.144;14.118;2023-02-28T03:28:52;-2.10;99.90
8332;DHT22;4203;48.144;14.118;2023-02-28T03:31:25;-2.10;99.90
8332;DHT22;4203;48.144;14.118;2023-02-28T03:33:59;-2.10;99.90
8332;DHT22;4203;48.144;14.118;2023-02-28T03:36:32;-2.10;99.90
8332;DHT22;4203;48.144;14.118;2023-02-28T03:39:06;-2.10;99.90
8332;DHT22;4203;48.144;14.118;2023-02-28T03:41:38;-2.10;99.90
8332;DHT22;4203;48.144;14.118;2023-02-28T03:44:11;-2.10;99.90
8332;DHT22;4203;48.144;14.118;2023-02-28T03:46:44;-2.10;99.90
8332;DHT22;4203;48.144;14.118;2023-02-28T03:49:17;-2.10;99.90
8332;DHT22;4203;48.144;14.118;2023-02-28T03:51:50;-2.10;99.90
8332;DHT22;4203;48.144;14.118;2023-02-28T03:54:21;-2.10;99.90
8332;DHT22;4203;48.144;14.118;2023-02-28T03:56:56;-2.20;99.90
8332;DHT22;4203;48.144;14.118;2023-02-28T03:59:29;-2.10;99.90
8332;DHT22;4203;48.144;14.118;2023-02-28T04:01:57;-2.20;99.90
8332;DHT22;4203;48.144;14.118;2023-02-28T04:04:25;-2.20;99.90
8332;DHT22;4203;48.144;14.118;2023-02-28T04:07:01;-2.20;99.90
8332;DHT22;4203;48.144;14.118;2023-02-28T04:09:28;-2.20;99.90
8332;DHT22;4203;48.144;14.118;2023-02-28T04:11:55;-2.30;99.90
8332;DHT22;4203;48.144;14.118;2023-02-28T04:14:23;-2.30;99.90
8332;DHT22;4203;48.144;14.118;2023-02-28T04:16:50;-2.30;99.90
8332;DHT22;4203;48.144;14.118;2023-02-28T04:19:18;-2.30;99.90
8332;DHT22;4203;48.144;14.118;2023-02-28T04:21:46;-2.30;99.90
8332;DHT22;4203;48.144;14.118;2023-02-28T04:24:17;-2.30;99.90
8332;DHT22;4203;48.144;14.118;2023-02-28T04:26:46;-2.30;99.90
8332;DHT22;4203;48.144;14.118;2023-02-28T04:29:17;-2.30;99.90
8332;DHT22;4203;48.144;14.118;2023-02-28T04:31:45;-2.30;99.90
8332;DHT22;4203;48.144;14.118;2023-02-28T04:34:12;-2.30;99.90
8332;DHT22;4203;48.144;14.118;2023-02-28T04:36:39;-2.30;99.90
8332;DHT22;4203;48.144;14.118;2023-02-28T04:39:07;-2.40;99.90
8332;DHT22;4203;48.144;14.118;2023-02-28T04:41:37;-2.40;99.90
8332;DHT22;4203;48.144;14.118;2023-02-28T04:44:04;-2.40;99.90
8332;DHT22;4203;48.144;14.118;2023-02-28T04:46:31;-2.40;99.90
8332;DHT22;4203;48.144;14.118;2023-02-28T04:48:58;-2.40;99.90
8332;DHT22;4203;48.144;14.118;2023-02-28T04:51:26;-2.40;99.90
8332;DHT22;4203;48.144;14.118;2023-02-28T04:53:53;-2.40;99.90
8332;DHT22;4203;48.144;14.118;2023-02-28T04:56:20;-2.40;99.90
8332;DHT22;4203;48.144;14.118;2023-02-28T04:58:49;-2.40;99.90
8332;DHT22;4203;48.144;14.118;2023-02-28T05:01:22;-2.40;99.90
8332;DHT22;4203;48.144;14.118;2023-02-28T05:03:50;-2.40;99.90
8332;DHT22;4203;48.144;14.118;2023-02-28T05:06:18;-2.40;99.90
8332;DHT22;4203;48.144;14.118;2023-02-28T05:08:46;-2.40;99.90
8332;DHT22;4203;48.144;14.118;2023-02-28T05:11:18;-2.40;99.90
8332;DHT22;4203;48.144;14.118;2023-02-28T05:13:46;-2.40;99.90
8332;DHT22;4203;48.144;14.118;2023-02-28T05:16:16;-2.40;99.90
8332;DHT22;4203;48.144;14.118;2023-02-28T05:18:44;-2.40;99.90
8332;DHT22;4203;48.144;14.118;2023-02-28T05:21:29;-2.50;99.90
8332;DHT22;4203;48.144;14.118;2023-02-28T05:23:58;-2.40;99.90
8332;DHT22;4203;48.144;14.118;2023-02-28T05:26:26;-2.40;99.90
8332;DHT22;4203;48.144;14.118;2023-02-28T05:28:54;-2.40;99.90
8332;DHT22;4203;48.144;14.118;2023-02-28T05:31:22;-2.40;99.90
8332;DHT22;4203;48.144;14.118;2023-02-28T05:33:50;-2.50;99.90
8332;DHT22;4203;48.144;14.118;2023-02-28T05:36:17;-2.50;99.90
8332;DHT22;4203;48.144;14.118;2023-02-28T05:38:46;-2.50;99.90
8332;DHT22;4203;48.144;14.118;2023-02-28T05:41:14;-2.50;99.90
8332;DHT22;4203;48.144;14.118;2023-02-28T05:43:41;-2.50;99.90
8332;DHT22;4203;48.144;14.118;2023-02-28T05:46:12;-2.60;99.90
8332;DHT22;4203;48.144;14.118;2023-02-28T05:48:45;-2.60;99.90
8332;DHT22;4203;48.144;14.118;2023-02-28T05:51:12;-2.60;99.90
8332;DHT22;4203;48.144;14.118;2023-02-28T05:53:40;-2.60;99.90
8332;DHT22;4203;48.144;14.118;2023-02-28T05:56:07;-2.60;99.90
8332;DHT22;4203;48.144;14.118;2023-02-28T05:58:34;-2.60;99.90
8332;DHT22;4203;48.144;14.118;2023-02-28T06:01:20;-2.50;99.90
8332;DHT22;4203;48.144;14.118;2023-02-28T06:03:49;-2.50;99.90
8332;DHT22;4203;48.144;14.118;2023-02-28T06:06:17;-2.50;99.90
8332;DHT22;4203;48.144;14.118;2023-02-28T06:08:44;-2.50;99.90
8332;DHT22;4203;48.144;14.118;2023-02-28T06:11:11;-2.60;99.90
8332;DHT22;4203;48.144;14.118;2023-02-28T06:13:38;-2.50;99.90
8332;DHT22;4203;48.144;14.118;2023-02-28T06:16:07;-2.60;99.90
8332;DHT22;4203;48.144;14.118;2023-02-28T06:18:34;-2.60;99.90
8332;DHT22;4203;48.144;14.118;2023-02-28T06:21:03;-2.50;99.90
8332;DHT22;4203;48.144;14.118;2023-02-28T06:23:31;-2.50;99.90
8332;DHT22;4203;48.144;14.118;2023-02-28T06:25:58;-2.50;99.90
8332;DHT22;4203;48.144;14.118;2023-02-28T06:28:25;-2.50;99.90
8332;DHT22;4203;48.144;14.118;2023-02-28T06:30:52;-2.40;99.90
8332;DHT22;4203;48.144;14.118;2023-02-28T06:33:20;-2.40;99.90
8332;DHT22;4203;48.144;14.118;2023-02-28T06:35:47;-2.40;99.90
8332;DHT22;4203;48.144;14.118;2023-02-28T06:38:18;-2.30;99.90
8332;DHT22;4203;48.144;14.118;2023-02-28T06:40:48;-2.30;99.90
8332;DHT22;4203;48.144;14.118;2023-02-28T06:43:19;-2.20;99.90
8332;DHT22;4203;48.144;14.118;2023-02-28T06:45:46;-2.20;99.90
8332;DHT22;4203;48.144;14.118;2023-02-28T06:48:13;-2.20;99.90
8332;DHT22;4203;48.144;14.118;2023-02-28T06:50:40;-2.10;99.90
8332;DHT22;4203;48.144;14.118;2023-02-28T06:53:07;-2.10;99.90
8332;DHT22;4203;48.144;14.118;2023-02-28T06:55:37;-2.00;99.90
8332;DHT22;4203;48.144;14.118;2023-02-28T06:58:04;-2.00;99.90
8332;DHT22;4203;48.144;14.118;2023-02-28T07:00:40;-2.00;99.90
8332;DHT22;4203;48.144;14.118;2023-02-28T07:03:08;-1.90;99.90
8332;DHT22;4203;48.144;14.118;2023-02-28T07:05:35;-1.90;99.90
8332;DHT22;4203;48.144;14.118;2023-02-28T07:08:03;-1.80;99.90
8332;DHT22;4203;48.144;14.118;2023-02-28T07:10:30;-1.80;99.90
8332;DHT22;4203;48.144;14.118;2023-02-28T07:12:59;-1.70;99.90
8332;DHT22;4203;48.144;14.118;2023-02-28T07:15:27;-1.70;99.90
8332;DHT22;4203;48.144;14.118;2023-02-28T07:17:54;-1.60;99.90
8332;DHT22;4203;48.144;14.118;2023-02-28T07:20:22;-1.60;99.90
8332;DHT22;4203;48.144;14.118;2023-02-28T07:22:50;-1.50;99.90
8332;DHT22;4203;48.144;14.118;2023-02-28T07:25:22;-1.50;99.90
8332;DHT22;4203;48.144;14.118;2023-02-28T07:27:49;-1.40;99.90
8332;DHT22;4203;48.144;14.118;2023-02-28T07:30:18;-1.30;99.90
8332;DHT22;4203;48.144;14.118;2023-02-28T07:32:45;-1.30;99.90
8332;DHT22;4203;48.144;14.118;2023-02-28T07:35:13;-1.20;99.90
8332;DHT22;4203;48.144;14.118;2023-02-28T07:37:41;-1.10;99.90
8332;DHT22;4203;48.144;14.118;2023-02-28T07:40:10;-1.00;99.90
8332;DHT22;4203;48.144;14.118;2023-02-28T07:42:39;-0.90;99.90
8332;DHT22;4203;48.144;14.118;2023-02-28T07:45:07;-0.80;99.90
8332;DHT22;4203;48.144;14.118;2023-02-28T07:47:38;-0.70;99.90
8332;DHT22;4203;48.144;14.118;2023-02-28T07:50:06;-0.60;99.90
8332;DHT22;4203;48.144;14.118;2023-02-28T07:52:33;-0.50;99.90
8332;DHT22;4203;48.144;14.118;2023-02-28T07:55:00;-0.40;99.90
8332;DHT22;4203;48.144;14.118;2023-02-28T07:57:27;-0.30;99.90
8332;DHT22;4203;48.144;14.118;2023-02-28T07:59:54;-0.30;99.90
8332;DHT22;4203;48.144;14.118;2023-02-28T08:02:22;-0.10;99.90
8332;DHT22;4203;48.144;14.118;2023-02-28T08:04:50;0.00;99.90
8332;DHT22;4203;48.144;14.118;2023-02-28T08:07:18;0.00;99.90
8332;DHT22;4203;48.144;14.118;2023-02-28T08:09:45;0.00;99.90
8332;DHT22;4203;48.144;14.118;2023-02-28T08:12:12;0.20;99.90
8332;DHT22;4203;48.144;14.118;2023-02-28T08:14:39;0.30;99.90
8332;DHT22;4203;48.144;14.118;2023-02-28T08:17:06;0.50;99.90
8332;DHT22;4203;48.144;14.118;2023-02-28T08:19:33;0.90;99.90
8332;DHT22;4203;48.144;14.118;2023-02-28T08:22:02;1.10;99.90
8332;DHT22;4203;48.144;14.118;2023-02-28T08:24:29;1.30;99.90
8332;DHT22;4203;48.144;14.118;2023-02-28T08:26:56;1.50;99.90
8332;DHT22;4203;48.144;14.118;2023-02-28T08:29:23;1.70;99.90
8332;DHT22;4203;48.144;14.118;2023-02-28T08:31:50;2.00;99.90
8332;DHT22;4203;48.144;14.118;2023-02-28T08:34:18;2.20;99.90
8332;DHT22;4203;48.144;14.118;2023-02-28T08:36:45;2.40;99.90
8332;DHT22;4203;48.144;14.118;2023-02-28T08:39:14;2.80;99.90
8332;DHT22;4203;48.144;14.118;2023-02-28T08:41:42;3.10;99.90
8332;DHT22;4203;48.144;14.118;2023-02-28T08:44:09;3.00;99.90
8332;DHT22;4203;48.144;14.118;2023-02-28T08:46:37;3.10;99.90
8332;DHT22;4203;48.144;14.118;2023-02-28T08:49:04;3.10;99.90
8332;DHT22;4203;48.144;14.118;2023-02-28T08:51:32;3.20;99.90
8332;DHT22;4203;48.144;14.118;2023-02-28T08:54:00;3.40;99.90
8332;DHT22;4203;48.144;14.118;2023-02-28T08:56:29;3.40;99.90
8332;DHT22;4203;48.144;14.118;2023-02-28T08:58:57;3.60;99.90
8332;DHT22;4203;48.144;14.118;2023-02-28T09:01:26;3.90;99.90
8332;DHT22;4203;48.144;14.118;2023-02-28T09:03:54;4.30;99.90
8332;DHT22;4203;48.144;14.118;2023-02-28T09:06:23;4.50;99.90
8332;DHT22;4203;48.144;14.118;2023-02-28T09:08:50;4.60;99.90
8332;DHT22;4203;48.144;14.118;2023-02-28T09:11:18;4.90;99.90
8332;DHT22;4203;48.144;14.118;2023-02-28T09:13:47;5.10;99.90
8332;DHT22;4203;48.144;14.118;2023-02-28T09:16:15;5.20;99.90
8332;DHT22;4203;48.144;14.118;2023-02-28T09:18:43;5.30;99.90
8332;DHT22;4203;48.144;14.118;2023-02-28T09:21:12;5.40;99.90
8332;DHT22;4203;48.144;14.118;2023-02-28T09:23:40;5.50;99.90
8332;DHT22;4203;48.144;14.118;2023-02-28T09:26:11;5.70;99.90
8332;DHT22;4203;48.144;14.118;2023-02-28T09:28:39;5.60;99.90
8332;DHT22;4203;48.144;14.118;2023-02-28T09:31:12;5.60;99.90
8332;DHT22;4203;48.144;14.118;2023-02-28T09:33:40;5.90;99.90
8332;DHT22;4203;48.144;14.118;2023-02-28T09:36:07;6.20;99.90
8332;DHT22;4203;48.144;14.118;2023-02-28T09:38:34;6.10;99.90
8332;DHT22;4203;48.144;14.118;2023-02-28T09:41:04;6.30;99.90
8332;DHT22;4203;48.144;14.118;2023-02-28T09:43:40;6.30;99.90
8332;DHT22;4203;48.144;14.118;2023-02-28T09:46:26;6.40;99.90
8332;DHT22;4203;48.144;14.118;2023-02-28T09:48:54;6.50;99.90
8332;DHT22;4203;48.144;14.118;2023-02-28T09:51:48;6.50;99.90
8332;DHT22;4203;48.144;14.118;2023-02-28T09:54:19;6.30;99.90
8332;DHT22;4203;48.144;14.118;2023-02-28T09:56:50;6.50;99.90
8332;DHT22;4203;48.144;14.118;2023-02-28T09:59:29;6.90;99.90
8332;DHT22;4203;48.144;14.118;2023-02-28T10:02:08;7.20;99.90
8332;DHT22;4203;48.144;14.118;2023-02-28T10:04:44;7.70;99.90
8332;DHT22;4203;48.144;14.118;2023-02-28T10:07:35;7.60;99.90
8332;DHT22;4203;48.144;14.118;2023-02-28T10:10:14;8.00;99.90
8332;DHT22;4203;48.144;14.118;2023-02-28T10:12:44;8.00;99.90
8332;DHT22;4203;48.144;14.118;2023-02-28T10:15:14;8.00;99.90
8332;DHT22;4203;48.144;14.118;2023-02-28T10:17:47;8.20;99.90
8332;DHT22;4203;48.144;14.118;2023-02-28T10:20:19;8.20;99.90
8332;DHT22;4203;48.144;14.118;2023-02-28T10:22:52;8.30;99.90
8332;DHT22;4203;48.144;14.118;2023-02-28T10:25:23;8.80;99.90
8332;DHT22;4203;48.144;14.118;2023-02-28T10:27:53;8.80;99.90
8332;DHT22;4203;48.144;14.118;2023-02-28T10:30:21;9.00;99.90
8332;DHT22;4203;48.144;14.118;2023-02-28T10:32:51;8.70;99.90
8332;DHT22;4203;48.144;14.118;2023-02-28T10:35:21;8.90;99.90
8332;DHT22;4203;48.144;14.118;2023-02-28T10:37:50;8.70;99.90
8332;DHT22;4203;48.144;14.118;2023-02-28T10:40:30;9.00;99.90
8332;DHT22;4203;48.144;14.118;2023-02-28T10:43:00;9.10;99.90
8332;DHT22;4203;48.144;14.118;2023-02-28T10:45:29;9.30;99.90
8332;DHT22;4203;48.144;14.118;2023-02-28T10:48:02;9.30;99.90
8332;DHT22;4203;48.144;14.118;2023-02-28T10:50:35;9.60;99.90
8332;DHT22;4203;48.144;14.118;2023-02-28T10:53:32;9.90;99.90
8332;DHT22;4203;48.144;14.118;2023-02-28T10:56:02;10.10;99.90
8332;DHT22;4203;48.144;14.118;2023-02-28T10:58:31;10.60;98.60
8332;DHT22;4203;48.144;14.118;2023-02-28T11:01:13;9.70;99.20
8332;DHT22;4203;48.144;14.118;2023-02-28T11:03:42;10.00;99.10
8332;DHT22;4203;48.144;14.118;2023-02-28T11:06:16;10.20;99.00
8332;DHT22;4203;48.144;14.118;2023-02-28T11:08:47;10.00;97.70
8332;DHT22;4203;48.144;14.118;2023-02-28T11:11:14;10.10;98.70
8332;DHT22;4203;48.144;14.118;2023-02-28T11:13:44;10.10;97.70
8332;DHT22;4203;48.144;14.118;2023-02-28T11:16:13;10.00;99.30
8332;DHT22;4203;48.144;14.118;2023-02-28T11:18:46;10.10;98.40
8332;DHT22;4203;48.144;14.118;2023-02-28T11:21:25;10.90;98.40
8332;DHT22;4203;48.144;14.118;2023-02-28T11:23:59;11.00;98.90
8332;DHT22;4203;48.144;14.118;2023-02-28T11:26:39;10.80;98.40
8332;DHT22;4203;48.144;14.118;2023-02-28T11:29:20;11.00;98.40
8332;DHT22;4203;48.144;14.118;2023-02-28T11:32:09;11.20;97.10
8332;DHT22;4203;48.144;14.118;2023-02-28T11:34:40;11.10;99.60
8332;DHT22;4203;48.144;14.118;2023-02-28T11:37:12;11.50;99.00
8332;DHT22;4203;48.144;14.118;2023-02-28T11:39:39;12.00;97.60
8332;DHT22;4203;48.144;14.118;2023-02-28T11:42:29;11.70;98.20
8332;DHT22;4203;48.144;14.118;2023-02-28T11:45:24;12.10;97.10
8332;DHT22;4203;48.144;14.118;2023-02-28T11:48:04;12.50;95.90
8332;DHT22;4203;48.144;14.118;2023-02-28T11:50:52;12.90;96.70
8332;DHT22;4203;48.144;14.118;2023-02-28T11:53:44;13.60;95.90
8332;DHT22;4203;48.144;14.118;2023-02-28T11:56:20;12.90;94.30
8332;DHT22;4203;48.144;14.118;2023-02-28T11:58:59;12.60;95.70
8332;DHT22;4203;48.144;14.118;2023-02-28T12:01:38;12.00;95.20
8332;DHT22;4203;48.144;14.118;2023-02-28T12:04:17;12.10;95.70
8332;DHT22;4203;48.144;14.118;2023-02-28T12:06:57;12.20;95.50
8332;DHT22;4203;48.144;14.118;2023-02-28T12:09:48;12.30;96.60
8332;DHT22;4203;48.144;14.118;2023-02-28T12:12:26;12.10;94.50
8332;DHT22;4203;48.144;14.118;2023-02-28T12:15:05;12.30;97.30
8332;DHT22;4203;48.144;14.118;2023-02-28T12:17:51;12.80;96.70
8332;DHT22;4203;48.144;14.118;2023-02-28T12:20:30;13.00;94.70
8332;DHT22;4203;48.144;14.118;2023-02-28T12:23:25;12.30;94.10
8332;DHT22;4203;48.144;14.118;2023-02-28T12:26:03;12.50;94.20
8332;DHT22;4203;48.144;14.118;2023-02-28T12:28:41;12.50;96.60
8332;DHT22;4203;48.144;14.118;2023-02-28T12:31:14;12.70;96.90
8332;DHT22;4203;48.144;14.118;2023-02-28T12:33:48;13.00;96.70
8332;DHT22;4203;48.144;14.118;2023-02-28T12:36:19;13.70;95.10
8332;DHT22;4203;48.144;14.118;2023-02-28T12:38:55;13.40;95.50
8332;DHT22;4203;48.144;14.118;2023-02-28T12:41:27;13.40;95.80
8332;DHT22;4203;48.144;14.118;2023-02-28T12:44:01;13.20;93.70
8332;DHT22;4203;48.144;14.118;2023-02-28T12:46:32;13.70;95.80
8332;DHT22;4203;48.144;14.118;2023-02-28T12:49:04;13.70;93.20
8332;DHT22;4203;48.144;14.118;2023-02-28T12:51:32;13.40;94.70
8332;DHT22;4203;48.144;14.118;2023-02-28T12:54:10;13.10;93.30
8332;DHT22;4203;48.144;14.118;2023-02-28T12:56:47;13.00;93.80
8332;DHT22;4203;48.144;14.118;2023-02-28T12:59:24;12.50;95.10
8332;DHT22;4203;48.144;14.118;2023-02-28T13:02:02;12.10;93.90
8332;DHT22;4203;48.144;14.118;2023-02-28T13:05:00;12.40;95.40
8332;DHT22;4203;48.144;14.118;2023-02-28T13:07:58;12.90;94.70
8332;DHT22;4203;48.144;14.118;2023-02-28T13:10:40;13.30;94.80
8332;DHT22;4203;48.144;14.118;2023-02-28T13:13:15;13.90;94.90
8332;DHT22;4203;48.144;14.118;2023-02-28T13:15:57;14.30;93.30
8332;DHT22;4203;48.144;14.118;2023-02-28T13:18:30;14.00;92.20
8332;DHT22;4203;48.144;14.118;2023-02-28T13:20:58;14.40;93.90
8332;DHT22;4203;48.144;14.118;2023-02-28T13:29:36;15.30;93.00
8332;DHT22;4203;48.144;14.118;2023-02-28T13:32:28;14.70;91.90
8332;DHT22;4203;48.144;14.118;2023-02-28T13:35:35;13.50;91.40
8332;DHT22;4203;48.144;14.118;2023-02-28T13:38:17;13.30;92.50
8332;DHT22;4203;48.144;14.118;2023-02-28T13:40:48;13.70;93.40
8332;DHT22;4203;48.144;14.118;2023-02-28T13:43:18;14.60;92.00
8332;DHT22;4203;48.144;14.118;2023-02-28T13:46:08;15.30;91.10
8332;DHT22;4203;48.144;14.118;2023-02-28T13:48:38;15.60;90.70
8332;DHT22;4203;48.144;14.118;2023-02-28T13:51:28;15.80;90.80
8332;DHT22;4203;48.144;14.118;2023-02-28T13:54:17;15.70;91.30
8332;DHT22;4203;48.144;14.118;2023-02-28T13:56:50;15.70;91.70
8332;DHT22;4203;48.144;14.118;2023-02-28T13:59:26;15.00;88.20
8332;DHT22;4203;48.144;14.118;2023-02-28T14:02:11;13.70;92.90
8332;DHT22;4203;48.144;14.118;2023-02-28T14:04:50;13.60;91.70
8332;DHT22;4203;48.144;14.118;2023-02-28T14:07:22;14.30;89.60
8332;DHT22;4203;48.144;14.118;2023-02-28T14:09:56;15.40;90.90
8332;DHT22;4203;48.144;14.118;2023-02-28T14:12:53;15.70;90.00
8332;DHT22;4203;48.144;14.118;2023-02-28T14:15:43;16.20;87.60
8332;DHT22;4203;48.144;14.118;2023-02-28T14:18:18;16.20;87.10
8332;DHT22;4203;48.144;14.118;2023-02-28T14:20:48;16.20;87.00
8332;DHT22;4203;48.144;14.118;2023-02-28T14:23:26;16.10;85.10
8332;DHT22;4203;48.144;14.118;2023-02-28T14:26:02;15.50;87.20
8332;DHT22;4203;48.144;14.118;2023-02-28T14:28:45;14.30;85.70
8332;DHT22;4203;48.144;14.118;2023-02-28T14:31:18;12.50;88.80
8332;DHT22;4203;48.144;14.118;2023-02-28T14:34:04;11.50;91.10
8332;DHT22;4203;48.144;14.118;2023-02-28T14:36:39;10.10;91.60
8332;DHT22;4203;48.144;14.118;2023-02-28T14:39:12;9.50;94.40
8332;DHT22;4203;48.144;14.118;2023-02-28T14:41:41;9.40;96.50
8332;DHT22;4203;48.144;14.118;2023-02-28T14:44:18;9.00;94.90
8332;DHT22;4203;48.144;14.118;2023-02-28T14:46:49;8.50;96.60
8332;DHT22;4203;48.144;14.118;2023-02-28T14:49:19;8.10;96.40
8332;DHT22;4203;48.144;14.118;2023-02-28T14:51:49;7.80;96.60
8332;DHT22;4203;48.144;14.118;2023-02-28T14:54:20;7.70;98.30
8332;DHT22;4203;48.144;14.118;2023-02-28T14:56:50;7.50;97.80
8332;DHT22;4203;48.144;14.118;2023-02-28T14:59:27;7.40;98.50
8332;DHT22;4203;48.144;14.118;2023-02-28T15:02:18;7.10;98.10
8332;DHT22;4203;48.144;14.118;2023-02-28T15:04:53;7.10;99.20
8332;DHT22;4203;48.144;14.118;2023-02-28T15:07:21;7.10;99.90
8332;DHT22;4203;48.144;14.118;2023-02-28T15:10:07;6.90;99.90
8332;DHT22;4203;48.144;14.118;2023-02-28T15:12:35;6.70;99.90
8332;DHT22;4203;48.144;14.118;2023-02-28T15:15:04;6.50;99.90
8332;DHT22;4203;48.144;14.118;2023-02-28T15:17:35;6.40;99.90
8332;DHT22;4203;48.144;14.118;2023-02-28T15:20:02;6.20;99.90
8332;DHT22;4203;48.144;14.118;2023-02-28T15:22:34;6.20;99.90
8332;DHT22;4203;48.144;14.118;2023-02-28T15:25:04;6.10;99.90
8332;DHT22;4203;48.144;14.118;2023-02-28T15:27:37;5.90;99.90
8332;DHT22;4203;48.144;14.118;2023-02-28T15:30:12;5.90;99.90
8332;DHT22;4203;48.144;14.118;2023-02-28T15:32:44;5.80;99.90
8332;DHT22;4203;48.144;14.118;2023-02-28T15:35:19;5.70;99.90
8332;DHT22;4203;48.144;14.118;2023-02-28T15:37:53;5.60;99.90
8332;DHT22;4203;48.144;14.118;2023-02-28T15:40:25;5.60;99.90
8332;DHT22;4203;48.144;14.118;2023-02-28T15:43:04;5.50;99.90
8332;DHT22;4203;48.144;14.118;2023-02-28T15:45:41;5.50;99.90
8332;DHT22;4203;48.144;14.118;2023-02-28T15:48:17;5.50;99.90
8332;DHT22;4203;48.144;14.118;2023-02-28T15:50:48;5.50;99.90
8332;DHT22;4203;48.144;14.118;2023-02-28T15:53:18;5.50;99.90
8332;DHT22;4203;48.144;14.118;2023-02-28T15:55:53;5.40;99.90
8332;DHT22;4203;48.144;14.118;2023-02-28T15:58:22;5.30;99.90
8332;DHT22;4203;48.144;14.118;2023-02-28T16:03:46;5.10;99.90
8332;DHT22;4203;48.144;14.118;2023-02-28T16:06:32;5.10;99.90
8332;DHT22;4203;48.144;14.118;2023-02-28T16:09:01;5.00;99.90
8332;DHT22;4203;48.144;14.118;2023-02-28T16:11:28;4.90;99.90
8332;DHT22;4203;48.144;14.118;2023-02-28T16:13:57;4.90;99.90
8332;DHT22;4203;48.144;14.118;2023-02-28T16:16:26;4.80;99.90
8332;DHT22;4203;48.144;14.118;2023-02-28T16:18:55;4.80;99.90
8332;DHT22;4203;48.144;14.118;2023-02-28T16:21:22;4.80;99.90
8332;DHT22;4203;48.144;14.118;2023-02-28T16:23:50;4.70;99.90
8332;DHT22;4203;48.144;14.118;2023-02-28T16:26:21;4.70;99.90
8332;DHT22;4203;48.144;14.118;2023-02-28T16:28:50;4.60;99.90
8332;DHT22;4203;48.144;14.118;2023-02-28T16:31:18;4.50;99.90
8332;DHT22;4203;48.144;14.118;2023-02-28T16:33:45;4.30;99.90